createdAt,value
2023-05-12T00:00:25.886Z,16.74
2023-05-12T00:02:55.331Z,16.73
2023-05-12T00:05:22.403Z,16.76
2023-05-12T00:07:51.479Z,16.71
2023-05-12T00:10:21.554Z,16.72
2023-05-12T00:12:48.866Z,16.68
2023-05-12T00:15:15.702Z,16.75
2023-05-12T00:17:42.834Z,16.65
2023-05-12T00:20:11.384Z,16.71
2023-05-12T00:22:41.733Z,16.69
2023-05-12T00:25:09.025Z,16.73
2023-05-12T00:27:38.407Z,16.74
2023-05-12T00:32:36.690Z,16.79
2023-05-12T00:35:04.023Z,16.73
2023-05-12T00:37:30.893Z,16.74
2023-05-12T00:39:59.877Z,16.73
2023-05-12T00:42:26.723Z,16.80
2023-05-12T00:44:55.619Z,16.75
2023-05-12T00:47:22.635Z,16.72
2023-05-12T00:49:51.989Z,16.76
2023-05-12T00:52:19.760Z,16.70
2023-05-12T00:54:48.297Z,16.68
2023-05-12T00:57:15.312Z,16.76
2023-05-12T00:59:42.141Z,16.78
2023-05-12T01:02:09.080Z,16.88
2023-05-12T01:04:36.468Z,16.78
2023-05-12T01:07:10.539Z,16.77
2023-05-12T01:09:37.482Z,16.82
2023-05-12T01:12:04.825Z,16.88
2023-05-12T01:14:34.609Z,16.90
2023-05-12T01:17:08.893Z,16.82
2023-05-12T01:19:43.824Z,16.87
2023-05-12T01:22:12.336Z,16.81
2023-05-12T01:25:05.647Z,16.89
2023-05-12T01:27:36.588Z,16.92
2023-05-12T01:30:07.715Z,17.03
2023-05-12T01:32:36.522Z,16.98
2023-05-12T01:35:05.985Z,16.90
2023-05-12T01:37:32.996Z,16.84
2023-05-12T01:40:02.980Z,16.87
2023-05-12T01:42:29.920Z,16.80
2023-05-12T01:44:56.755Z,16.93
2023-05-12T01:47:23.762Z,16.97
2023-05-12T01:49:51.300Z,16.79
2023-05-12T01:52:18.161Z,17.02
2023-05-12T01:54:45.039Z,16.91
2023-05-12T01:57:11.966Z,17.05
2023-05-12T01:59:41.968Z,17.02
2023-05-12T02:02:09.055Z,16.99
2023-05-12T02:04:40.680Z,17.08
2023-05-12T02:07:07.583Z,17.11
2023-05-12T02:09:34.521Z,17.09
2023-05-12T02:12:02.310Z,17.09
2023-05-12T02:14:29.188Z,16.94
2023-05-12T02:16:59.040Z,17.01
2023-05-12T02:19:25.962Z,17.04
2023-05-12T02:21:54.934Z,17.00
2023-05-12T02:24:21.794Z,16.99
2023-05-12T02:26:50.873Z,17.00
2023-05-12T02:29:18.535Z,17.04
2023-05-12T02:31:45.833Z,17.02
2023-05-12T02:34:15.802Z,17.05
2023-05-12T02:36:42.966Z,17.04
2023-05-12T02:39:09.889Z,16.99
2023-05-12T02:41:36.758Z,16.87
2023-05-12T02:44:03.694Z,16.93
2023-05-12T02:46:30.523Z,17.01
2023-05-12T02:48:57.495Z,17.07
2023-05-12T02:51:28.984Z,17.06
2023-05-12T02:53:56.324Z,17.06
2023-05-12T02:56:27.797Z,17.04
2023-05-12T02:58:57.251Z,16.90
2023-05-12T03:01:26.855Z,16.99
2023-05-12T03:03:53.797Z,16.96
2023-05-12T03:06:20.872Z,17.15
2023-05-12T03:08:50.390Z,17.21
2023-05-12T03:11:17.238Z,17.11
2023-05-12T03:13:44.246Z,17.19
2023-05-12T03:16:13.159Z,17.23
2023-05-12T03:18:43.558Z,17.23
2023-05-12T03:21:13.132Z,17.18
2023-05-12T03:23:40.087Z,17.19
2023-05-12T03:26:06.962Z,17.23
2023-05-12T03:28:33.850Z,17.11
2023-05-12T03:31:03.259Z,17.22
2023-05-12T03:33:30.314Z,17.10
2023-05-12T03:35:57.200Z,17.17
2023-05-12T03:38:24.098Z,17.02
2023-05-12T03:40:53.491Z,17.00
2023-05-12T03:43:27.386Z,17.07
2023-05-12T03:45:57.212Z,17.08
2023-05-12T03:48:26.426Z,17.04
2023-05-12T03:50:53.266Z,17.23
2023-05-12T03:53:22.213Z,17.23
2023-05-12T03:55:49.060Z,17.21
2023-05-12T03:58:16.137Z,17.28
2023-05-12T04:00:44.165Z,17.34
2023-05-12T04:03:13.767Z,17.28
2023-05-12T04:05:42.600Z,17.28
2023-05-12T04:08:09.931Z,17.29
2023-05-12T04:10:41.068Z,17.28
2023-05-12T04:13:11.104Z,17.28
2023-05-12T04:15:41.009Z,17.19
2023-05-12T04:18:07.884Z,17.38
2023-05-12T04:20:34.730Z,17.53
2023-05-12T04:23:01.578Z,17.59
2023-05-12T04:25:30.831Z,17.50
2023-05-12T04:27:57.785Z,17.43
2023-05-12T04:30:29.384Z,17.39
2023-05-12T04:32:56.261Z,17.43
2023-05-12T04:35:25.345Z,17.48
2023-05-12T04:37:52.612Z,17.61
2023-05-12T04:40:21.851Z,17.53
2023-05-12T04:42:49.003Z,17.63
2023-05-12T04:45:15.981Z,17.68
2023-05-12T04:47:42.901Z,17.80
2023-05-12T04:50:12.496Z,17.70
2023-05-12T04:52:44.126Z,17.72
2023-05-12T04:55:18.446Z,17.85
2023-05-12T04:57:47.635Z,17.95
2023-05-12T05:00:14.995Z,18.00
2023-05-12T05:02:44.355Z,17.92
2023-05-12T05:05:11.907Z,17.97
2023-05-12T05:07:38.894Z,18.13
2023-05-12T05:10:07.210Z,18.12
2023-05-12T05:12:34.105Z,18.12
2023-05-12T05:15:03.166Z,18.14
2023-05-12T05:17:33.580Z,18.17
2023-05-12T05:20:00.578Z,18.23
2023-05-12T05:22:27.531Z,18.31
2023-05-12T05:24:54.758Z,18.39
2023-05-12T05:27:21.602Z,18.38
2023-05-12T05:29:49.374Z,18.58
2023-05-12T05:32:16.678Z,18.73
2023-05-12T05:34:45.883Z,18.72
2023-05-12T05:37:12.945Z,18.78
2023-05-12T05:39:41.974Z,18.86
2023-05-12T05:42:08.836Z,18.90
2023-05-12T05:44:36.093Z,18.97
2023-05-12T05:47:03.161Z,18.93
2023-05-12T05:49:32.483Z,19.06
2023-05-12T05:51:59.303Z,19.10
2023-05-12T05:54:28.656Z,19.16
2023-05-12T05:56:55.487Z,19.26
2023-05-12T05:59:22.366Z,19.34
2023-05-12T06:01:54.014Z,19.50
2023-05-12T06:04:21.126Z,19.52
2023-05-12T06:06:48.231Z,19.59
2023-05-12T06:09:15.813Z,19.50
2023-05-12T06:11:45.653Z,19.64
2023-05-12T06:14:12.543Z,19.77
2023-05-12T06:16:39.712Z,19.93
2023-05-12T06:19:09.343Z,20.11
2023-05-12T06:21:36.293Z,20.23
2023-05-12T06:24:08.802Z,20.40
2023-05-12T06:26:36.698Z,20.56
2023-05-12T06:29:06.598Z,20.81
2023-05-12T06:31:33.551Z,20.91
2023-05-12T06:34:03.772Z,21.14
2023-05-12T06:36:30.701Z,21.23
2023-05-12T06:38:57.667Z,21.26
2023-05-12T06:41:27.069Z,21.37
2023-05-12T06:43:53.998Z,21.55
2023-05-12T06:46:23.316Z,21.58
2023-05-12T06:48:50.214Z,21.95
2023-05-12T06:51:19.306Z,22.23
2023-05-12T06:53:48.595Z,22.34
2023-05-12T06:56:17.094Z,22.58
2023-05-12T06:58:44.313Z,22.59
2023-05-12T07:01:11.251Z,22.74
2023-05-12T07:03:38.652Z,22.98
2023-05-12T07:06:05.776Z,22.93
2023-05-12T07:08:35.042Z,22.65
2023-05-12T07:11:02.084Z,22.46
2023-05-12T07:13:29.222Z,22.51
2023-05-12T07:15:58.377Z,22.93
2023-05-12T07:18:25.660Z,23.04
2023-05-12T07:20:53.330Z,23.07
2023-05-12T07:23:22.376Z,23.26
2023-05-12T07:25:52.305Z,23.08
2023-05-12T07:28:19.194Z,23.02
2023-05-12T07:30:48.672Z,23.26
2023-05-12T07:33:15.621Z,23.39
2023-05-12T07:35:42.540Z,23.76
2023-05-12T07:38:09.716Z,24.00
2023-05-12T07:40:36.595Z,24.22
2023-05-12T07:43:05.989Z,24.36
2023-05-12T07:45:32.945Z,24.24
2023-05-12T07:48:02.761Z,23.93
2023-05-12T07:50:32.319Z,24.01
2023-05-12T07:52:59.202Z,24.00
2023-05-12T07:55:28.625Z,24.15
2023-05-12T07:58:02.614Z,24.12
2023-05-12T08:00:29.973Z,24.09
2023-05-12T08:02:57.172Z,24.20
2023-05-12T08:05:24.250Z,24.39
2023-05-12T08:07:53.679Z,24.41
2023-05-12T08:10:20.705Z,24.63
2023-05-12T08:12:50.695Z,25.04
2023-05-12T08:15:18.010Z,25.37
2023-05-12T08:17:45.368Z,25.53
2023-05-12T08:20:12.801Z,25.84
2023-05-12T08:22:40.088Z,25.76
2023-05-12T08:25:12.419Z,25.72
2023-05-12T08:27:39.785Z,25.93
2023-05-12T08:30:10.459Z,26.28
2023-05-12T08:32:37.720Z,26.48
2023-05-12T08:35:05.214Z,26.46
2023-05-12T08:37:34.577Z,26.41
2023-05-12T08:40:02.493Z,26.21
2023-05-12T08:42:43.765Z,26.11
2023-05-12T08:45:16.712Z,26.69
2023-05-12T08:47:46.545Z,26.31
2023-05-12T08:50:18.029Z,26.63
2023-05-12T08:52:47.517Z,26.45
2023-05-12T08:55:15.536Z,26.27
2023-05-12T08:57:48.364Z,26.24
2023-05-12T09:00:19.418Z,26.02
2023-05-12T09:02:55.174Z,26.44
2023-05-12T09:05:25.240Z,26.65
2023-05-12T09:07:58.096Z,26.47
2023-05-12T09:10:35.289Z,26.27
2023-05-12T09:13:23.046Z,25.86
2023-05-12T09:15:56.508Z,25.79
2023-05-12T09:18:26.210Z,26.06
2023-05-12T09:20:53.142Z,26.30
2023-05-12T09:23:26.063Z,26.77
2023-05-12T09:26:02.389Z,26.48
2023-05-12T09:28:39.372Z,26.05
2023-05-12T09:31:24.486Z,25.98
2023-05-12T09:33:52.161Z,26.19
2023-05-12T09:36:24.226Z,26.54
2023-05-12T09:39:09.171Z,26.74
2023-05-12T09:41:37.882Z,26.94
2023-05-12T09:44:08.996Z,27.11
2023-05-12T09:46:38.699Z,26.86
2023-05-12T09:49:06.010Z,27.43
2023-05-12T09:51:33.258Z,27.41
2023-05-12T09:54:00.815Z,27.59
2023-05-12T09:56:30.116Z,27.88
2023-05-12T09:58:58.237Z,27.23
2023-05-12T10:01:27.215Z,26.82
2023-05-12T10:03:58.990Z,27.51
2023-05-12T10:06:28.389Z,28.11
2023-05-12T10:09:16.584Z,28.33
2023-05-12T10:11:44.282Z,28.51
2023-05-12T10:14:13.420Z,28.05
2023-05-12T10:16:41.628Z,28.27
2023-05-12T10:19:10.546Z,28.04
2023-05-12T10:21:43.382Z,28.05
2023-05-12T10:24:10.473Z,27.34
2023-05-12T10:26:39.783Z,27.52
2023-05-12T10:29:07.056Z,27.18
2023-05-12T10:31:37.577Z,27.45
2023-05-12T10:34:04.738Z,27.13
2023-05-12T10:36:31.962Z,26.77
2023-05-12T10:39:06.345Z,27.53
2023-05-12T10:41:35.479Z,27.95
2023-05-12T10:44:02.492Z,27.73
2023-05-12T10:46:30.420Z,27.43
2023-05-12T10:49:10.217Z,27.06
2023-05-12T10:51:47.082Z,26.80
2023-05-12T10:54:24.122Z,26.38
2023-05-12T10:56:51.924Z,25.97
2023-05-12T10:59:24.191Z,26.58
2023-05-12T11:02:03.089Z,26.66
2023-05-12T11:04:46.889Z,27.06
2023-05-12T11:07:18.573Z,27.11
2023-05-12T11:12:17.594Z,27.58
2023-05-12T11:14:46.461Z,27.74
2023-05-12T11:17:16.342Z,27.27
2023-05-12T11:19:50.728Z,27.10
2023-05-12T11:22:22.002Z,27.12
2023-05-12T11:24:53.000Z,27.42
2023-05-12T11:27:22.824Z,28.03
2023-05-12T11:30:04.714Z,28.25
2023-05-12T11:32:33.860Z,28.58
2023-05-12T11:35:19.852Z,28.89
2023-05-12T11:37:47.328Z,28.96
2023-05-12T11:40:20.993Z,29.03
2023-05-12T11:42:55.743Z,29.19
2023-05-12T11:45:30.581Z,28.62
2023-05-12T11:48:14.510Z,28.49
2023-05-12T11:50:49.069Z,28.99
2023-05-12T11:53:18.886Z,29.56
2023-05-12T11:55:57.140Z,29.34
2023-05-12T11:58:30.257Z,29.23
2023-05-12T12:01:10.114Z,29.54
2023-05-12T12:03:50.015Z,30.14
2023-05-12T12:06:17.629Z,30.61
2023-05-12T12:09:00.348Z,30.03
2023-05-12T12:11:28.278Z,29.63
2023-05-12T12:13:58.193Z,30.07
2023-05-12T12:16:30.039Z,30.26
2023-05-12T12:18:57.640Z,30.08
2023-05-12T12:21:28.395Z,30.44
2023-05-12T12:23:57.668Z,30.21
2023-05-12T12:26:24.520Z,29.63
2023-05-12T12:28:56.340Z,29.50
2023-05-12T12:31:23.520Z,29.56
2023-05-12T12:33:50.426Z,29.53
2023-05-12T12:36:19.771Z,29.36
2023-05-12T12:38:49.161Z,29.14
2023-05-12T12:41:16.160Z,29.30
2023-05-12T12:43:43.118Z,29.21
2023-05-12T12:46:12.454Z,29.21
2023-05-12T12:48:42.400Z,28.99
2023-05-12T12:51:14.390Z,28.62
2023-05-12T12:53:43.361Z,28.67
2023-05-12T12:56:10.313Z,28.53
2023-05-12T12:58:39.461Z,28.37
2023-05-12T13:01:06.835Z,28.66
2023-05-12T13:03:33.749Z,28.78
2023-05-12T13:06:00.746Z,28.91
2023-05-12T13:08:28.186Z,28.71
2023-05-12T13:10:55.788Z,29.14
2023-05-12T13:13:24.478Z,28.75
2023-05-12T13:15:53.177Z,28.62
2023-05-12T13:18:22.819Z,28.60
2023-05-12T13:20:54.144Z,28.54
2023-05-12T13:23:21.419Z,28.77
2023-05-12T13:25:51.982Z,28.98
2023-05-12T13:28:26.484Z,29.30
2023-05-12T13:30:53.426Z,29.01
2023-05-12T13:33:22.957Z,29.06
2023-05-12T13:35:49.963Z,29.48
2023-05-12T13:38:19.917Z,30.03
2023-05-12T13:40:48.964Z,29.37
2023-05-12T13:43:15.843Z,29.06
2023-05-12T13:45:42.848Z,28.89
2023-05-12T13:48:10.032Z,29.33
2023-05-12T13:50:39.265Z,29.53
2023-05-12T13:53:08.689Z,29.69
2023-05-12T13:55:40.585Z,29.45
2023-05-12T13:58:10.054Z,29.37
2023-05-12T14:00:37.056Z,27.80
2023-05-12T14:03:04.178Z,27.24
2023-05-12T14:05:31.186Z,27.99
2023-05-12T14:07:58.169Z,28.30
2023-05-12T14:10:28.108Z,28.06
2023-05-12T14:12:55.491Z,27.80
2023-05-12T14:15:36.093Z,28.03
2023-05-12T14:18:09.595Z,27.97
2023-05-12T14:20:36.616Z,27.45
2023-05-12T14:23:03.537Z,27.23
2023-05-12T14:25:30.823Z,26.93
2023-05-12T14:27:57.835Z,27.19
2023-05-12T14:30:27.144Z,27.50
2023-05-12T14:32:58.696Z,27.32
2023-05-12T14:35:27.565Z,27.72
2023-05-12T14:37:55.593Z,27.62
2023-05-12T14:40:31.998Z,27.52
2023-05-12T14:42:59.985Z,27.74
2023-05-12T14:45:27.090Z,27.70
2023-05-12T14:47:59.606Z,27.79
2023-05-12T14:50:28.233Z,27.93
2023-05-12T14:52:57.405Z,28.13
2023-05-12T14:55:29.837Z,27.72
2023-05-12T14:57:58.829Z,27.49
2023-05-12T15:00:25.911Z,27.79
2023-05-12T15:02:53.029Z,27.95
2023-05-12T15:05:29.525Z,27.88
2023-05-12T15:08:03.500Z,27.61
2023-05-12T15:10:30.434Z,27.33
2023-05-12T15:12:57.277Z,27.26
2023-05-12T15:15:24.455Z,27.21
2023-05-12T15:17:56.459Z,27.41
2023-05-12T15:20:23.320Z,27.64
2023-05-12T15:22:50.360Z,27.44
2023-05-12T15:25:17.224Z,27.27
2023-05-12T15:27:48.701Z,27.58
2023-05-12T15:30:18.108Z,27.52
2023-05-12T15:32:47.175Z,27.55
2023-05-12T15:35:14.117Z,27.49
2023-05-12T15:37:40.974Z,27.44
2023-05-12T15:40:13.052Z,27.92
2023-05-12T15:42:40.880Z,27.86
2023-05-12T15:45:09.702Z,27.60
2023-05-12T15:47:36.702Z,27.17
2023-05-12T15:50:04.343Z,26.93
2023-05-12T15:52:31.302Z,26.67
2023-05-12T15:54:58.251Z,26.46
2023-05-12T15:57:25.143Z,26.74
2023-05-12T15:59:58.680Z,26.88
2023-05-12T16:02:28.094Z,27.19
2023-05-12T16:04:55.007Z,27.20
2023-05-12T16:07:29.375Z,27.39
2023-05-12T16:09:57.358Z,26.49
2023-05-12T16:12:24.286Z,26.24
2023-05-12T16:14:53.716Z,26.47
2023-05-12T16:17:23.767Z,26.62
2023-05-12T16:19:53.109Z,26.75
2023-05-12T16:22:24.737Z,26.48
2023-05-12T16:24:53.622Z,26.54
2023-05-12T16:27:20.520Z,26.29
2023-05-12T16:29:49.426Z,26.47
2023-05-12T16:32:17.390Z,26.35
2023-05-12T16:34:46.930Z,26.24
2023-05-12T16:37:16.613Z,26.54
2023-05-12T16:39:43.524Z,26.36
2023-05-12T16:42:13.091Z,26.69
2023-05-12T16:44:40.201Z,26.95
2023-05-12T16:47:09.336Z,26.89
2023-05-12T16:49:38.691Z,26.89
2023-05-12T16:52:08.780Z,26.48
2023-05-12T16:54:36.711Z,26.69
2023-05-12T16:57:06.102Z,26.70
2023-05-12T16:59:33.063Z,26.57
2023-05-12T17:02:02.287Z,26.41
2023-05-12T17:04:29.370Z,26.16
2023-05-12T17:06:56.274Z,26.30
2023-05-12T17:09:25.273Z,26.10
2023-05-12T17:11:55.304Z,25.91
2023-05-12T17:14:23.421Z,25.95
2023-05-12T17:16:50.335Z,25.93
2023-05-12T17:19:22.277Z,25.78
2023-05-12T17:21:49.261Z,25.75
2023-05-12T17:24:19.665Z,25.70
2023-05-12T17:26:46.539Z,25.57
2023-05-12T17:29:16.035Z,25.46
2023-05-12T17:31:43.144Z,25.50
2023-05-12T17:34:10.240Z,25.64
2023-05-12T17:36:39.408Z,25.77
2023-05-12T17:39:06.758Z,25.72
2023-05-12T17:41:33.716Z,25.21
2023-05-12T17:44:03.236Z,25.14
2023-05-12T17:46:30.234Z,24.99
2023-05-12T17:48:57.113Z,25.02
2023-05-12T17:51:24.004Z,25.07
2023-05-12T17:53:51.076Z,24.95
2023-05-12T17:56:17.917Z,24.98
2023-05-12T17:58:44.778Z,25.12
2023-05-12T18:01:11.670Z,25.07
2023-05-12T18:03:38.815Z,24.83
2023-05-12T18:06:05.871Z,24.67
2023-05-12T18:08:35.834Z,24.75
2023-05-12T18:11:02.705Z,24.92
2023-05-12T18:13:31.779Z,24.80
2023-05-12T18:15:58.668Z,24.79
2023-05-12T18:18:26.279Z,24.52
2023-05-12T18:20:55.916Z,24.46
2023-05-12T18:23:22.823Z,24.60
2023-05-12T18:25:51.900Z,24.55
2023-05-12T18:28:21.334Z,24.47
2023-05-12T18:30:48.269Z,24.26
2023-05-12T18:33:17.733Z,24.22
2023-05-12T18:35:47.191Z,24.33
2023-05-12T18:38:14.206Z,24.14
2023-05-12T18:40:44.839Z,24.13
2023-05-12T18:43:12.029Z,24.04
2023-05-12T18:45:41.390Z,24.01
2023-05-12T18:48:08.325Z,23.85
2023-05-12T18:50:35.345Z,23.60
2023-05-12T18:53:02.434Z,23.51
2023-05-12T18:55:31.998Z,23.27
2023-05-12T18:58:01.850Z,23.23
2023-05-12T19:00:31.925Z,23.18
2023-05-12T19:02:59.477Z,22.91
2023-05-12T19:05:26.765Z,22.78
2023-05-12T19:07:53.683Z,22.73
2023-05-12T19:10:23.034Z,22.59
2023-05-12T19:12:52.317Z,22.55
2023-05-12T19:15:21.936Z,22.47
2023-05-12T19:17:49.597Z,22.38
2023-05-12T19:20:16.554Z,22.45
2023-05-12T19:22:44.056Z,22.43
2023-05-12T19:25:11.763Z,22.12
2023-05-12T19:27:38.822Z,22.21
2023-05-12T19:30:06.671Z,22.08
2023-05-12T19:32:33.815Z,22.06
2023-05-12T19:35:04.855Z,21.88
2023-05-12T19:37:33.332Z,21.84
2023-05-12T19:40:00.388Z,21.70
2023-05-12T19:42:27.783Z,21.56
2023-05-12T19:44:56.949Z,21.58
2023-05-12T19:47:25.637Z,21.49
2023-05-12T19:49:54.012Z,21.26
2023-05-12T19:52:22.112Z,21.27
2023-05-12T19:54:49.280Z,21.14
2023-05-12T19:57:21.357Z,21.02
2023-05-12T19:59:49.664Z,21.05
2023-05-12T20:02:17.246Z,20.98
2023-05-12T20:04:44.732Z,20.82
2023-05-12T20:07:14.296Z,20.67
2023-05-12T20:09:44.783Z,20.76
2023-05-12T20:12:14.528Z,20.68
2023-05-12T20:14:41.821Z,20.54
2023-05-12T20:17:12.387Z,20.57
2023-05-12T20:19:40.152Z,20.43
2023-05-12T20:22:07.791Z,20.26
2023-05-12T20:24:45.259Z,20.09
2023-05-12T20:27:18.315Z,20.25
2023-05-12T20:29:49.607Z,19.96
2023-05-12T20:32:18.759Z,19.94
2023-05-12T20:34:45.979Z,20.04
2023-05-12T20:37:14.050Z,20.03
2023-05-12T20:39:42.161Z,19.95
2023-05-12T20:42:12.290Z,19.94
2023-05-12T20:44:39.771Z,19.76
2023-05-12T20:47:07.109Z,19.40
2023-05-12T20:49:34.414Z,19.64
2023-05-12T20:52:04.426Z,19.40
2023-05-12T20:54:32.628Z,19.61
2023-05-12T20:57:02.314Z,19.59
2023-05-12T20:59:29.408Z,19.29
2023-05-12T21:01:58.982Z,19.33
2023-05-12T21:04:30.393Z,19.42
2023-05-12T21:07:00.398Z,19.49
2023-05-12T21:09:28.662Z,19.42
2023-05-12T21:12:02.295Z,19.51
2023-05-12T21:14:31.798Z,19.44
2023-05-12T21:16:58.930Z,19.43
2023-05-12T21:19:30.690Z,19.43
2023-05-12T21:22:00.907Z,19.42
2023-05-12T21:24:28.078Z,19.06
2023-05-12T21:26:55.419Z,19.11
2023-05-12T21:29:22.563Z,19.12
2023-05-12T21:31:49.562Z,19.13
2023-05-12T21:34:16.619Z,19.05
2023-05-12T21:36:43.559Z,19.06
2023-05-12T21:39:10.504Z,19.02
2023-05-12T21:41:40.257Z,19.04
2023-05-12T21:44:09.210Z,19.06
2023-05-12T21:46:40.139Z,18.98
2023-05-12T21:49:07.212Z,18.95
2023-05-12T21:51:34.382Z,18.79
2023-05-12T21:54:06.020Z,18.65
2023-05-12T21:56:33.387Z,18.74
2023-05-12T21:59:03.227Z,18.74
2023-05-12T22:01:32.454Z,18.56
2023-05-12T22:03:59.635Z,18.60
2023-05-12T22:06:26.989Z,18.56
2023-05-12T22:08:54.195Z,18.43
2023-05-12T22:11:21.773Z,18.54
2023-05-12T22:13:51.397Z,18.48
2023-05-12T22:16:23.612Z,18.46
2023-05-12T22:18:55.342Z,18.40
2023-05-12T22:21:24.928Z,18.23
2023-05-12T22:23:54.158Z,18.21
2023-05-12T22:26:21.282Z,18.32
2023-05-12T22:28:50.325Z,18.22
2023-05-12T22:31:17.308Z,18.27
2023-05-12T22:33:44.851Z,18.17
2023-05-12T22:36:11.798Z,18.12
2023-05-12T22:38:38.884Z,18.23
2023-05-12T22:41:05.960Z,18.28
2023-05-12T22:43:33.109Z,18.04
2023-05-12T22:46:00.171Z,18.14
2023-05-12T22:48:27.374Z,18.03
2023-05-12T22:50:54.807Z,17.89
2023-05-12T22:53:22.053Z,17.87
2023-05-12T22:55:49.462Z,17.83
2023-05-12T22:58:21.012Z,17.68
2023-05-12T23:00:48.120Z,17.75
2023-05-12T23:03:15.175Z,17.65
2023-05-12T23:05:42.140Z,17.56
2023-05-12T23:08:09.509Z,17.60
2023-05-12T23:10:36.552Z,17.39
2023-05-12T23:13:03.424Z,17.51
2023-05-12T23:15:30.725Z,17.56
2023-05-12T23:18:00.173Z,17.43
2023-05-12T23:20:27.146Z,17.40
2023-05-12T23:22:54.023Z,17.55
2023-05-12T23:25:23.588Z,17.52
2023-05-12T23:27:53.010Z,17.23
2023-05-12T23:30:20.072Z,17.25
2023-05-12T23:32:50.422Z,17.32
2023-05-12T23:35:20.148Z,17.36
2023-05-12T23:37:49.613Z,17.39
2023-05-12T23:40:16.733Z,17.35
2023-05-12T23:42:43.578Z,17.47
2023-05-12T23:45:13.548Z,17.19
2023-05-12T23:47:40.729Z,17.19
2023-05-12T23:50:08.956Z,17.11
2023-05-12T23:52:36.039Z,17.11
2023-05-12T23:55:02.964Z,17.20
2023-05-12T23:57:29.874Z,17.14
2023-05-12T23:59:59.765Z,16.96
